Time;durP1;ratioP1;P1;durP2;ratioP2;P2;SDS_P1;SDS_P2;PMS_P1;PMS_P2;Temp;Humidity;BMP_temperature;BMP_pressure;BME280_temperature;BME280_humidity;BME280_pressure;Samples;Min_cycle;Max_cycle;Signal;HPM_P1;HPM_P2
2022/10/31 00:01:39;;;;;;;22.03;11.13;;;;;;;8.40;100.00;101109.75;4968974;28;20221;-73
2022/10/31 00:04:06;;;;;;;19.07;11.27;;;;;;;8.41;100.00;101114.09;4963689;28;20702;-73
2022/10/31 00:06:33;;;;;;;23.87;11.90;;;;;;;8.45;100.00;101110.63;4967253;28;20485;-73
2022/10/31 00:09:02;;;;;;;20.50;11.83;;;;;;;8.52;100.00;101107.06;4969017;28;20501;-73
2022/10/31 00:11:30;;;;;;;19.83;11.33;;;;;;;8.57;100.00;101111.38;4963250;28;20285;-73
2022/10/31 00:13:57;;;;;;;19.80;11.90;;;;;;;8.55;100.00;101113.13;4965485;28;20231;-73
2022/10/31 00:16:25;;;;;;;18.10;11.47;;;;;;;8.56;100.00;101114.84;4967350;28;20265;-73
2022/10/31 00:18:53;;;;;;;20.30;11.53;;;;;;;8.58;100.00;101119.13;4965194;28;20216;-73
2022/10/31 00:21:21;;;;;;;17.47;12.07;;;;;;;8.58;100.00;101111.34;4967230;28;20221;-73
2022/10/31 00:23:47;;;;;;;20.17;12.57;;;;;;;8.60;100.00;101107.03;4964776;28;20207;-73
2022/10/31 00:26:14;;;;;;;20.03;11.17;;;;;;;8.60;100.00;101113.94;4963636;28;20202;-73
2022/10/31 00:28:42;;;;;;;18.27;11.30;;;;;;;8.60;100.00;101104.41;4961251;28;20216;-73
2022/10/31 00:31:12;;;;;;;18.77;12.03;;;;;;;8.64;100.00;101123.44;4966451;28;20515;-73
2022/10/31 00:33:40;;;;;;;17.07;11.03;;;;;;;8.62;100.00;101125.16;4967973;28;20204;-73
2022/10/31 00:36:08;;;;;;;17.60;11.73;;;;;;;8.61;100.00;101120.88;4969593;28;20289;-73
2022/10/31 00:38:35;;;;;;;18.97;12.03;;;;;;;8.58;100.00;101121.75;4945640;28;20373;-73
2022/10/31 00:41:01;;;;;;;16.67;11.50;;;;;;;8.58;100.00;101123.50;4964594;28;20277;-73
2022/10/31 00:43:28;;;;;;;20.47;11.37;;;;;;;8.58;100.00;101123.50;4966488;28;20198;-73
2022/10/31 00:45:55;;;;;;;18.13;11.47;;;;;;;8.60;100.00;101132.13;4964618;28;20698;-73
2022/10/31 00:48:24;;;;;;;15.87;11.13;;;;;;;8.59;100.00;101127.81;4945127;28;21526;-73
2022/10/31 00:50:50;;;;;;;17.67;11.13;;;;;;;8.59;100.00;101126.06;4965123;28;20228;-73
2022/10/31 00:53:17;;;;;;;18.83;10.00;;;;;;;8.59;100.00;101128.69;4971873;28;20391;-73
2022/10/31 00:55:43;;;;;;;23.23;11.40;;;;;;;8.56;100.00;101136.50;4964261;28;20793;-73
2022/10/31 00:58:10;;;;;;;17.93;11.17;;;;;;;8.52;100.00;101130.47;4945026;28;20226;-73
2022/10/31 01:00:37;;;;;;;19.90;10.97;;;;;;;8.53;100.00;101133.91;4965293;28;20284;-73
2022/10/31 01:03:05;;;;;;;15.27;10.70;;;;;;;8.50;100.00;101132.22;4948768;28;20201;-73
2022/10/31 01:05:32;;;;;;;16.90;11.17;;;;;;;8.52;100.00;101127.00;4963794;28;20423;-75
2022/10/31 01:07:59;;;;;;;15.97;10.57;;;;;;;8.50;100.00;101129.63;4948133;28;20213;-73
2022/10/31 01:10:27;;;;;;;19.07;11.63;;;;;;;8.47;100.00;101132.25;4966623;28;20208;-73
2022/10/31 01:12:53;;;;;;;21.27;10.70;;;;;;;8.46;100.00;101127.94;4947420;28;20238;-73
2022/10/31 01:15:23;;;;;;;16.80;10.20;;;;;;;8.47;100.00;101129.66;4963120;28;20221;-73
2022/10/31 01:17:50;;;;;;;17.10;10.10;;;;;;;8.42;100.00;101130.53;4967574;28;20217;-73
2022/10/31 01:20:18;;;;;;;17.87;10.23;;;;;;;8.39;100.00;101134.03;4951050;28;20228;-73
2022/10/31 01:22:45;;;;;;;16.00;9.47;;;;;;;8.40;100.00;101132.28;4964589;28;20221;-73
2022/10/31 01:25:12;;;;;;;16.73;9.00;;;;;;;8.38;100.00;101131.44;4963974;28;20236;-73
2022/10/31 01:27:38;;;;;;;21.43;10.50;;;;;;;8.33;100.00;101129.75;4949110;28;20202;-73
2022/10/31 01:30:08;;;;;;;12.57;9.47;;;;;;;8.33;100.00;101128.88;4972709;28;20637;-73
2022/10/31 01:32:34;;;;;;;15.70;9.53;;;;;;;8.35;100.00;101137.53;4949967;28;20209;-73
2022/10/31 01:35:01;;;;;;;13.03;9.60;;;;;;;8.30;100.00;101129.78;4966323;28;20230;-73
2022/10/31 01:37:28;;;;;;;15.70;9.30;;;;;;;8.29;100.00;101133.25;4967159;28;20196;-73
2022/10/31 01:39:55;;;;;;;12.53;9.20;;;;;;;8.28;100.00;101133.25;4964615;28;20222;-73
2022/10/31 01:42:23;;;;;;;12.90;9.07;;;;;;;8.31;100.00;101131.50;4967679;28;20212;-73
2022/10/31 01:45:01;;;;;;;14.10;10.03;;;;;;;8.27;100.00;101132.41;4962205;28;20256;-73
2022/10/31 01:47:37;;;;;;;17.73;9.77;;;;;;;8.26;100.00;101140.22;4965021;28;20201;-73
2022/10/31 01:50:07;;;;;;;11.80;8.80;;;;;;;8.24;100.00;101134.16;4969331;28;20200;-73
2022/10/31 01:52:39;;;;;;;12.27;8.93;;;;;;;8.19;100.00;101139.38;4950741;28;20206;-73
2022/10/31 01:55:10;;;;;;;13.20;8.80;;;;;;;8.17;100.00;101140.28;4944113;28;20259;-73
2022/10/31 01:57:40;;;;;;;12.30;8.67;;;;;;;8.19;100.00;101135.94;4952584;28;20224;-73
2022/10/31 02:00:11;;;;;;;12.73;9.33;;;;;;;8.15;100.00;101132.50;4971560;28;20717;-73
2022/10/31 02:02:40;;;;;;;12.17;9.00;;;;;;;8.14;100.00;101134.25;4968494;28;20266;-73
2022/10/31 02:05:11;;;;;;;12.93;8.10;;;;;;;8.08;100.00;101136.03;4961506;28;20234;-73
2022/10/31 02:07:42;;;;;;;10.93;8.47;;;;;;;8.13;100.00;101131.66;4962524;28;20685;-73
2022/10/31 02:10:09;;;;;;;12.40;8.10;;;;;;;8.08;100.00;101133.44;4960769;28;20220;-73
2022/10/31 02:12:36;;;;;;;16.97;8.63;;;;;;;8.08;100.00;101142.06;4950653;28;20298;-73
2022/10/31 02:15:05;;;;;;;13.07;8.13;;;;;;;8.07;100.00;101142.09;4973218;28;20249;-73
2022/10/31 02:17:33;;;;;;;12.77;8.13;;;;;;;8.01;100.00;101147.34;4964150;28;20203;-73
2022/10/31 02:20:11;;;;;;;11.47;8.43;;;;;;;8.00;100.00;101143.84;4950035;28;20248;-73
2022/10/31 02:22:51;;;;;;;13.37;8.63;;;;;;;8.02;100.00;101136.94;4967907;28;20208;-73
2022/10/31 02:25:38;;;;;;;10.60;7.53;;;;;;;7.92;100.00;101143.06;4948366;28;20265;-73
2022/10/31 02:28:19;;;;;;;12.57;8.20;;;;;;;7.90;100.00;101143.06;4966292;28;20213;-73
2022/10/31 02:31:01;;;;;;;12.83;7.57;;;;;;;7.85;100.00;101147.44;4947529;28;20689;-73
2022/10/31 02:33:36;;;;;;;10.90;7.53;;;;;;;7.85;100.00;101152.63;4961042;28;20240;-73
2022/10/31 02:36:12;;;;;;;12.50;7.33;;;;;;;7.88;100.00;101142.22;4952720;28;20199;-73
2022/10/31 02:38:50;;;;;;;10.97;7.13;;;;;;;7.83;100.00;101151.78;4969296;28;20225;-73
2022/10/31 02:41:34;;;;;;;9.97;7.07;;;;;;;7.84;100.00;101160.41;4964573;28;20286;-73
2022/10/31 02:44:14;;;;;;;14.03;7.33;;;;;;;7.82;100.00;101152.63;4947638;28;20603;-73
2022/10/31 02:46:49;;;;;;;9.97;7.20;;;;;;;7.79;100.00;101157.84;4961566;28;20620;-73
2022/10/31 02:49:24;;;;;;;10.17;6.97;;;;;;;7.80;100.00;101159.56;4961692;28;20596;-73
2022/10/31 02:51:52;;;;;;;12.13;7.00;;;;;;;7.77;100.00;101163.06;4946689;28;20205;-73
2022/10/31 02:54:22;;;;;;;8.30;6.30;;;;;;;7.80;100.00;101161.31;4967310;28;20233;-73
2022/10/31 02:56:57;;;;;;;9.77;6.70;;;;;;;7.74;100.00;101157.03;4965172;28;20207;-73
2022/10/31 02:59:24;;;;;;;9.27;7.10;;;;;;;7.77;100.00;101167.38;4962140;28;20384;-73
2022/10/31 03:02:16;;;;;;;10.40;7.27;;;;;;;7.73;100.00;101163.09;4973376;28;20710;-73
2022/10/31 03:07:20;;;;;;;10.80;6.87;;;;;;;7.70;100.00;101171.72;4965062;28;20607;-72
2022/10/31 03:09:55;;;;;;;12.73;6.87;;;;;;;7.65;100.00;101163.13;4952130;28;20210;-72
2022/10/31 03:12:28;;;;;;;8.60;6.50;;;;;;;7.63;100.00;101175.22;4967905;28;20662;-72
2022/10/31 03:15:07;;;;;;;7.93;6.03;;;;;;;7.61;100.00;101170.94;4969592;28;20259;-72
2022/10/31 03:17:39;;;;;;;8.97;6.63;;;;;;;7.63;100.00;101175.22;4964350;28;20204;-72
2022/10/31 03:20:10;;;;;;;8.60;6.30;;;;;;;7.66;100.00;101175.22;4965118;28;20288;-72
2022/10/31 03:22:40;;;;;;;10.67;6.10;;;;;;;7.67;100.00;101174.38;4958631;28;20219;-72
2022/10/31 03:25:08;;;;;;;8.90;6.23;;;;;;;7.67;100.00;101181.28;4966738;28;20511;-72
2022/10/31 03:27:38;;;;;;;10.30;6.60;;;;;;;7.69;100.00;101182.16;4964561;28;20212;-72
2022/10/31 03:30:07;;;;;;;7.43;5.70;;;;;;;7.69;100.00;101179.56;4954483;28;20213;-71
2022/10/31 03:32:49;;;;;;;7.97;5.70;;;;;;;7.65;100.00;101185.63;4964699;28;20288;-71
2022/10/31 03:35:20;;;;;;;11.63;5.70;;;;;;;7.63;100.00;101180.44;4969313;28;20286;-72
2022/10/31 03:37:49;;;;;;;8.53;5.93;;;;;;;7.68;100.00;101185.59;4968961;28;20306;-72
2022/10/31 03:40:18;;;;;;;9.07;6.60;;;;;;;7.68;100.00;101189.06;4947107;28;20800;-72
2022/10/31 03:42:52;;;;;;;12.90;6.40;;;;;;;7.66;100.00;101193.41;4967283;28;20228;-71
2022/10/31 03:45:25;;;;;;;8.13;5.90;;;;;;;7.66;100.00;101190.81;4952287;28;20219;-71
2022/10/31 03:47:54;;;;;;;9.33;6.37;;;;;;;7.64;100.00;101195.13;4949613;28;20203;-71
2022/10/31 03:50:22;;;;;;;10.67;5.70;;;;;;;7.69;100.00;101192.53;4944104;28;20569;-73
2022/10/31 03:52:53;;;;;;;12.10;6.33;;;;;;;7.65;100.00;101199.47;4960232;28;20680;-72
2022/10/31 03:55:25;;;;;;;9.50;6.87;;;;;;;7.65;100.00;101196.88;4947186;28;20467;-72
2022/10/31 03:57:56;;;;;;;9.47;6.20;;;;;;;7.66;100.00;101190.81;4966480;28;20634;-71
2022/10/31 04:00:23;;;;;;;8.17;5.57;;;;;;;7.63;100.00;101198.59;4965733;28;20226;-72
2022/10/31 04:02:59;;;;;;;7.80;6.20;;;;;;;7.60;100.00;101203.81;4945791;28;20562;-72
2022/10/31 04:05:30;;;;;;;8.63;5.73;;;;;;;7.56;100.00;101204.69;4964871;28;20710;-71
2022/10/31 04:08:02;;;;;;;10.90;5.97;;;;;;;7.61;100.00;101205.53;4957903;28;20197;-72
2022/10/31 04:10:32;;;;;;;13.17;5.90;;;;;;;7.59;100.00;101207.28;4963584;28;20200;-72
2022/10/31 04:13:02;;;;;;;10.80;6.10;;;;;;;7.59;100.00;101209.88;4963659;28;20299;-71
2022/10/31 04:15:37;;;;;;;9.23;5.83;;;;;;;7.65;100.00;101208.97;4963181;28;20786;-71
2022/10/31 04:18:06;;;;;;;9.50;5.27;;;;;;;7.66;100.00;101208.97;4961725;28;20213;-72
2022/10/31 04:20:34;;;;;;;8.27;5.57;;;;;;;7.60;100.00;101206.41;4960569;28;20607;-71
2022/10/31 04:23:02;;;;;;;10.17;5.73;;;;;;;7.60;100.00;101211.59;4960287;28;20259;-72
2022/10/31 04:25:29;;;;;;;8.97;5.70;;;;;;;7.61;100.00;101208.13;4948092;28;20224;-72
2022/10/31 04:27:56;;;;;;;8.97;5.83;;;;;;;7.59;100.00;101215.91;4950690;28;20658;-72
2022/10/31 04:30:23;;;;;;;10.77;5.40;;;;;;;7.55;100.00;101214.22;4951975;28;20199;-71
2022/10/31 04:32:49;;;;;;;9.13;5.60;;;;;;;7.54;100.00;101215.06;4963525;28;20216;-72
2022/10/31 04:35:17;;;;;;;7.47;5.20;;;;;;;7.53;100.00;101220.28;4961959;28;20230;-72
2022/10/31 04:37:44;;;;;;;11.43;5.67;;;;;;;7.57;100.00;101216.81;4943942;28;20204;-71
2022/10/31 04:40:11;;;;;;;7.37;5.33;;;;;;;7.47;100.00;101221.16;4951172;28;20580;-72
2022/10/31 04:42:44;;;;;;;7.83;5.17;;;;;;;7.43;100.00;101226.38;4951213;28;20274;-71
2022/10/31 04:45:10;;;;;;;9.10;5.43;;;;;;;7.48;100.00;101222.91;4948594;28;20307;-72
2022/10/31 04:47:38;;;;;;;8.80;5.27;;;;;;;7.41;100.00;101223.78;4950121;28;20217;-72
2022/10/31 04:50:06;;;;;;;6.43;4.50;;;;;;;7.44;100.00;101226.38;4954850;28;20206;-71
2022/10/31 04:52:41;;;;;;;7.23;5.47;;;;;;;7.44;100.00;101228.97;4960401;28;20200;-72
2022/10/31 04:55:09;;;;;;;8.87;5.10;;;;;;;7.35;100.00;101226.38;4967201;28;20218;-71
2022/10/31 04:57:58;;;;;;;6.10;4.80;;;;;;;7.32;100.00;101221.22;4950220;28;20215;-74
2022/10/31 05:00:26;;;;;;;7.57;4.73;;;;;;;7.35;100.00;101228.97;4947909;28;20231;-73
2022/10/31 05:02:55;;;;;;;7.97;5.07;;;;;;;7.27;100.00;101223.81;4956066;28;20237;-71
2022/10/31 05:05:23;;;;;;;8.27;5.43;;;;;;;7.26;100.00;101229.88;4956988;28;20803;-72
2022/10/31 05:07:52;;;;;;;9.10;5.53;;;;;;;7.22;100.00;101225.56;4955648;28;20590;-72
2022/10/31 05:10:23;;;;;;;7.87;5.30;;;;;;;7.27;100.00;101223.81;4975807;28;20406;-72
2022/10/31 05:12:52;;;;;;;6.87;5.17;;;;;;;7.28;100.00;101224.69;4975413;28;20227;-72
2022/10/31 05:15:37;;;;;;;8.97;5.63;;;;;;;7.28;100.00;101230.75;4968862;28;20236;-72
2022/10/31 05:18:24;;;;;;;9.30;5.43;;;;;;;7.19;100.00;101223.84;4975686;28;20276;-72
2022/10/31 05:21:09;;;;;;;5.30;4.67;;;;;;;7.20;100.00;101233.34;4968070;28;20313;-72
2022/10/31 05:23:39;;;;;;;6.83;4.73;;;;;;;7.23;100.00;101229.00;4974341;28;20302;-72
2022/10/31 05:26:07;;;;;;;8.07;5.53;;;;;;;7.24;100.00;101222.97;4971732;28;20731;-72
2022/10/31 05:28:34;;;;;;;7.27;5.50;;;;;;;7.18;100.00;101234.22;4966875;28;20206;-72
2022/10/31 05:31:02;;;;;;;8.00;5.20;;;;;;;7.20;100.00;101229.91;4962207;28;20272;-70
2022/10/31 05:33:28;;;;;;;8.27;5.20;;;;;;;7.19;100.00;101228.16;4953659;28;20219;-72
2022/10/31 05:36:26;;;;;;;7.63;5.10;;;;;;;7.06;100.00;101226.47;4967047;28;20309;-72
2022/10/31 05:39:04;;;;;;;7.30;4.53;;;;;;;6.95;100.00;101227.34;4972991;28;20612;-72
2022/10/31 05:41:35;;;;;;;6.93;4.90;;;;;;;6.98;100.00;101229.97;4966994;28;20217;-72
2022/10/31 05:44:09;;;;;;;8.97;5.70;;;;;;;7.07;100.00;101235.97;4970896;28;20317;-74
2022/10/31 05:46:48;;;;;;;6.47;4.73;;;;;;;6.98;100.00;101240.31;4953450;28;20202;-71
2022/10/31 05:49:44;;;;;;;8.27;4.93;;;;;;;6.91;100.00;101243.78;4973412;28;20506;-74
2022/10/31 05:52:29;;;;;;;8.23;4.73;;;;;;;7.10;100.00;101243.75;4967094;28;20613;-73
2022/10/31 05:55:05;;;;;;;7.70;5.47;;;;;;;6.87;100.00;101247.22;4960836;28;20327;-72
2022/10/31 05:57:33;;;;;;;8.40;5.30;;;;;;;6.86;100.00;101245.53;4957203;28;20350;-72
2022/10/31 05:59:59;;;;;;;7.53;4.77;;;;;;;6.78;100.00;101249.84;4972327;28;20313;-71
2022/10/31 06:02:27;;;;;;;7.90;4.87;;;;;;;6.78;100.00;101249.84;4975580;28;20623;-72
2022/10/31 06:05:13;;;;;;;6.20;5.20;;;;;;;6.84;100.00;101252.41;4965100;28;20236;-72
2022/10/31 06:07:39;;;;;;;9.10;5.17;;;;;;;6.88;100.00;101261.03;4953110;28;20206;-72
2022/10/31 06:10:09;;;;;;;6.53;5.07;;;;;;;6.88;100.00;101256.75;4977937;28;20723;-72
2022/10/31 06:12:37;;;;;;;7.40;5.20;;;;;;;6.90;100.00;101262.78;4954469;28;20513;-71
2022/10/31 06:15:21;;;;;;;6.30;4.47;;;;;;;6.81;100.00;101263.66;4970655;28;20229;-72
2022/10/31 06:17:58;;;;;;;7.50;4.60;;;;;;;6.92;100.00;101260.19;4970459;28;20216;-72
2022/10/31 06:20:26;;;;;;;5.57;4.50;;;;;;;6.95;100.00;101260.22;4968527;28;20253;-72
2022/10/31 06:23:03;;;;;;;9.20;5.23;;;;;;;6.91;100.00;101271.44;4975445;28;20580;-75
2022/10/31 06:25:33;;;;;;;7.43;5.57;;;;;;;6.95;100.00;101273.16;4969720;28;20574;-72
2022/10/31 06:28:00;;;;;;;8.07;5.40;;;;;;;6.91;100.00;101280.09;4968404;28;20690;-72
2022/10/31 06:30:35;;;;;;;7.27;5.63;;;;;;;6.95;100.00;101279.22;4954427;28;20770;-72
2022/10/31 06:33:04;;;;;;;7.33;5.30;;;;;;;7.02;100.00;101287.84;4954983;28;20205;-72
2022/10/31 06:35:30;;;;;;;5.93;5.17;;;;;;;6.92;100.00;101284.38;4967654;28;20313;-74
2022/10/31 06:37:57;;;;;;;9.23;4.90;;;;;;;7.02;100.00;101285.25;4971068;28;20193;-72
2022/10/31 06:40:34;;;;;;;7.27;5.37;;;;;;;7.04;100.00;101282.66;4969138;28;20302;-72
2022/10/31 06:43:20;;;;;;;6.37;4.80;;;;;;;7.07;100.00;101293.00;4971787;28;20223;-74
2022/10/31 06:45:47;;;;;;;6.10;4.70;;;;;;;7.07;100.00;101291.31;4969524;28;20226;-72
2022/10/31 06:48:31;;;;;;;6.63;4.83;;;;;;;7.13;100.00;101293.03;4966364;28;20667;-72
2022/10/31 06:51:15;;;;;;;11.50;6.33;;;;;;;7.25;100.00;101303.38;4945392;28;20213;-72
2022/10/31 06:53:42;;;;;;;8.33;5.50;;;;;;;7.24;100.00;101306.81;4962556;28;20265;-72
2022/10/31 06:56:12;;;;;;;12.20;6.43;;;;;;;7.34;100.00;101310.28;4963388;28;20229;-72
2022/10/31 06:58:44;;;;;;;7.67;5.47;;;;;;;7.36;100.00;101313.72;4952198;28;20198;-72
2022/10/31 07:01:13;;;;;;;9.40;6.00;;;;;;;7.41;100.00;101304.22;4963434;28;20706;-71
2022/10/31 07:03:39;;;;;;;7.73;5.97;;;;;;;7.43;100.00;101309.41;4941184;28;20218;-72
2022/10/31 07:06:08;;;;;;;9.43;5.97;;;;;;;7.54;100.00;101315.41;4959109;28;20230;-72
2022/10/31 07:08:34;;;;;;;12.00;6.73;;;;;;;7.59;100.00;101318.88;4975183;28;20201;-72
2022/10/31 07:11:01;;;;;;;8.53;6.20;;;;;;;7.66;100.00;101317.97;4961855;28;20206;-71
2022/10/31 07:13:30;;;;;;;11.57;6.40;;;;;;;7.72;100.00;101311.91;4939355;28;20203;-71
2022/10/31 07:16:06;;;;;;;9.63;7.07;;;;;;;7.84;100.00;101326.56;4959044;28;20789;-71
2022/10/31 07:18:34;;;;;;;13.33;7.20;;;;;;;7.87;100.00;101327.44;4962952;28;20292;-72
2022/10/31 07:21:02;;;;;;;16.17;7.17;;;;;;;8.00;100.00;101325.63;4956135;28;20218;-72
2022/10/31 07:23:29;;;;;;;9.67;6.50;;;;;;;8.09;100.00;101329.94;4968090;28;20223;-72
2022/10/31 07:26:30;;;;;;;11.10;7.40;;;;;;;8.22;100.00;101326.41;4965832;28;20232;-72
2022/10/31 07:28:59;;;;;;;13.07;7.10;;;;;;;8.38;100.00;101331.53;4956742;28;20206;-72
2022/10/31 07:31:25;;;;;;;15.70;8.23;;;;;;;8.45;100.00;101334.09;4944783;28;20204;-72
2022/10/31 07:33:55;;;;;;;13.00;7.80;;;;;;;8.56;100.00;101336.63;4958128;28;20205;-72
2022/10/31 07:36:27;;;;;;;15.37;8.10;;;;;;;8.67;100.00;101331.34;4963972;28;20673;-72
2022/10/31 07:38:59;;;;;;;14.97;8.53;;;;;;;8.83;100.00;101337.31;4965152;28;20205;-72
2022/10/31 07:41:25;;;;;;;10.77;8.03;;;;;;;8.94;100.00;101337.25;4969874;28;20676;-72
2022/10/31 07:43:52;;;;;;;14.40;7.93;;;;;;;9.03;100.00;101338.03;4954315;28;20201;-72
2022/10/31 07:46:38;;;;;;;13.93;8.40;;;;;;;9.16;100.00;101337.91;4962011;28;20216;-72
2022/10/31 07:49:25;;;;;;;12.73;8.53;;;;;;;9.29;100.00;101339.53;4969940;28;20292;-72
2022/10/31 07:52:10;;;;;;;17.40;8.23;;;;;;;9.41;100.00;101346.34;4967165;28;20201;-72
2022/10/31 07:54:55;;;;;;;14.80;8.47;;;;;;;9.57;100.00;101344.44;4968962;28;20275;-72
2022/10/31 07:57:23;;;;;;;12.23;7.90;;;;;;;9.69;100.00;101348.69;4966065;28;20201;-72
2022/10/31 07:59:50;;;;;;;17.00;9.70;;;;;;;9.77;100.00;101349.47;4970460;28;20214;-70
2022/10/31 08:02:19;;;;;;;14.40;8.90;;;;;;;9.84;100.00;101351.13;4969395;28;20309;-72
2022/10/31 08:04:48;;;;;;;12.37;8.10;;;;;;;9.99;100.00;101353.53;4965673;28;20586;-72
2022/10/31 08:07:46;;;;;;;15.07;8.57;;;;;;;10.11;100.00;101357.72;4965186;28;20211;-72
2022/10/31 08:10:19;;;;;;;16.27;8.47;;;;;;;10.22;100.00;101350.66;4967836;28;20207;-71
2022/10/31 08:12:45;;;;;;;20.40;9.80;;;;;;;10.35;100.00;101350.53;4958483;28;20206;-72
2022/10/31 08:15:12;;;;;;;13.53;9.47;;;;;;;10.45;100.00;101346.91;4957268;28;20242;-72
2022/10/31 08:17:40;;;;;;;18.70;10.37;;;;;;;10.56;100.00;101344.13;4966001;28;20240;-72
2022/10/31 08:20:08;;;;;;;16.17;10.17;;;;;;;10.62;100.00;101346.63;4944314;28;20216;-72
2022/10/31 08:22:42;;;;;;;24.47;10.90;;;;;;;10.68;100.00;101346.56;4948946;28;20316;-72
2022/10/31 08:25:09;;;;;;;16.13;10.23;;;;;;;10.78;100.00;101345.53;4948601;28;20319;-71
2022/10/31 08:27:36;;;;;;;22.63;10.23;;;;;;;10.88;100.00;101355.81;4954569;28;20203;-72
2022/10/31 08:30:03;;;;;;;23.07;10.70;;;;;;;10.99;100.00;101359.13;4967989;28;20996;-72
2022/10/31 08:32:30;;;;;;;24.30;11.17;;;;;;;11.09;100.00;101349.41;4953861;28;20208;-72
2022/10/31 08:34:58;;;;;;;26.30;11.40;;;;;;;11.16;100.00;101351.88;4974027;28;20224;-71
2022/10/31 08:37:43;;;;;;;23.63;11.10;;;;;;;11.25;100.00;101350.00;4963629;28;20576;-72
2022/10/31 08:40:12;;;;;;;23.97;12.33;;;;;;;11.34;100.00;101355.94;4973239;28;20261;-71
2022/10/31 08:42:40;;;;;;;26.17;11.77;;;;;;;11.47;100.00;101356.56;4967134;28;20229;-71
2022/10/31 08:45:07;;;;;;;25.27;12.67;;;;;;;11.54;100.00;101352.94;4969647;28;20634;-72
2022/10/31 08:47:34;;;;;;;27.00;12.70;;;;;;;11.66;100.00;101348.38;4971246;28;20790;-70
2022/10/31 08:50:02;;;;;;;33.03;14.93;;;;;;;11.80;100.00;101351.56;4957990;28;20279;-71
2022/10/31 08:52:29;;;;;;;33.10;14.90;;;;;;;11.91;100.00;101348.81;4970775;28;20205;-71
2022/10/31 08:55:00;;;;;;;33.00;14.63;;;;;;;12.03;100.00;101342.44;4971110;28;20230;-71
2022/10/31 08:57:45;;;;;;;33.07;15.57;;;;;;;12.12;100.00;101347.50;4962798;28;20601;-72
2022/10/31 09:00:13;;;;;;;30.93;15.47;;;;;;;12.20;100.00;101349.94;4962811;28;20286;-72
2022/10/31 09:02:57;;;;;;;30.57;15.90;;;;;;;12.34;100.00;101347.03;4970651;28;20555;-72
2022/10/31 09:05:25;;;;;;;38.97;17.07;;;;;;;12.44;100.00;101348.56;4981152;23;20244;-70
2022/10/31 09:07:51;;;;;;;37.60;16.80;;;;;;;12.53;100.00;101344.88;5021086;28;20657;-71
2022/10/31 09:10:19;;;;;;;39.93;17.67;;;;;;;12.63;100.00;101344.63;5000796;28;20198;-71
2022/10/31 09:12:46;;;;;;;37.97;17.13;;;;;;;12.69;100.00;101351.47;5004494;28;20416;-71
2022/10/31 09:15:38;;;;;;;36.90;17.07;;;;;;;12.79;100.00;101355.59;5017867;28;20228;-70
2022/10/31 09:18:21;;;;;;;48.07;18.67;;;;;;;12.88;100.00;101354.50;4996043;28;20782;-70
2022/10/31 09:21:00;;;;;;;50.27;18.50;;;;;;;12.98;100.00;101356.00;5002526;28;20221;-70
2022/10/31 09:23:28;;;;;;;44.27;19.33;;;;;;;13.08;100.00;101354.84;4999560;28;20679;-70
2022/10/31 09:25:55;;;;;;;45.73;18.73;;;;;;;13.15;100.00;101349.47;4999705;28;20224;-71
2022/10/31 09:28:32;;;;;;;54.47;20.00;;;;;;;13.19;100.00;101357.25;5017128;28;20214;-71
2022/10/31 09:31:04;;;;;;;48.10;18.23;;;;;;;13.25;100.00;101354.44;5005152;28;20203;-70
2022/10/31 09:33:49;;;;;;;41.67;17.73;;;;;;;13.29;100.00;101354.38;4988241;28;20212;-72
2022/10/31 09:36:46;;;;;;;52.23;20.00;;;;;;;13.39;100.00;101359.38;5002059;28;20347;-70
2022/10/31 09:39:17;;;;;;;45.30;19.87;;;;;;;13.39;100.00;101356.75;5003676;28;20212;-71
2022/10/31 09:42:00;;;;;;;48.20;19.67;;;;;;;13.47;100.00;101358.31;4998840;28;20309;-71
2022/10/31 09:44:38;;;;;;;47.80;19.67;;;;;;;13.64;100.00;101356.09;5014998;28;20200;-71
2022/10/31 09:47:14;;;;;;;41.53;19.83;;;;;;;13.71;100.00;101365.50;5001524;28;20311;-71
2022/10/31 09:50:03;;;;;;;43.57;18.97;;;;;;;13.75;100.00;101358.41;5001902;28;20291;-71
2022/10/31 09:52:34;;;;;;;46.47;18.03;;;;;;;13.77;100.00;101361.84;4999600;28;20212;-70
2022/10/31 09:55:13;;;;;;;47.93;18.37;;;;;;;13.80;100.00;101361.75;4994752;28;20206;-71
2022/10/31 09:57:41;;;;;;;40.07;17.97;;;;;;;13.88;100.00;101364.16;4998752;28;20201;-71
2022/10/31 10:00:17;;;;;;;34.53;16.37;;;;;;;13.97;100.00;101367.41;5003006;28;20657;-71
2022/10/31 10:02:50;;;;;;;39.27;14.50;;;;;;;14.12;100.00;101371.31;5004091;28;20314;-71
2022/10/31 10:05:22;;;;;;;32.23;16.40;;;;;;;14.20;100.00;101371.97;5004672;28;20610;-71
2022/10/31 10:07:59;;;;;;;33.57;15.67;;;;;;;14.27;100.00;101372.66;5003354;28;20241;-71
2022/10/31 10:10:50;;;;;;;25.73;14.00;;;;;;;14.40;100.00;101370.50;5017830;28;20299;-71
2022/10/31 10:13:39;;;;;;;32.97;14.17;;;;;;;14.48;100.00;101371.16;5008779;28;20206;-70
2022/10/31 10:16:17;;;;;;;22.50;13.17;;;;;;;14.50;100.00;101366.72;5004320;28;20255;-72
2022/10/31 10:18:57;;;;;;;20.20;12.17;;;;;;;14.61;100.00;101362.94;5018351;28;20210;-71
2022/10/31 10:21:37;;;;;;;27.43;11.43;;;;;;;14.63;100.00;101367.22;5019615;28;20202;-72
2022/10/31 10:24:22;;;;;;;18.73;10.13;;;;;;;14.71;100.00;101359.13;5016988;28;21066;-71
2022/10/31 10:26:59;;;;;;;14.43;9.10;;;;;;;14.75;100.00;101360.72;5015302;28;20598;-73
2022/10/31 10:29:35;;;;;;;12.57;8.50;;;;;;;14.76;100.00;101354.59;5019777;28;20783;-72
2022/10/31 10:32:10;;;;;;;15.63;9.83;;;;;;;14.83;100.00;101352.59;5016793;28;20537;-72
2022/10/31 10:34:42;;;;;;;14.80;7.90;;;;;;;14.92;100.00;101353.16;5020642;28;20195;-72
2022/10/31 10:37:21;;;;;;;13.40;7.47;;;;;;;14.96;100.00;101349.53;5016140;28;20582;-72
2022/10/31 10:39:54;;;;;;;9.30;7.30;;;;;;;14.98;100.00;101351.25;5020526;28;20253;-72
2022/10/31 10:48:09;;;;;;;9.63;6.77;;;;;;;15.23;100.00;101349.53;5022409;28;20195;-72
2022/10/31 10:50:42;;;;;;;10.40;6.43;;;;;;;15.34;100.00;101352.63;5023411;28;20211;-72
2022/10/31 10:53:31;;;;;;;14.63;6.87;;;;;;;15.48;100.00;101356.56;5023210;28;20195;-72
2022/10/31 10:56:03;;;;;;;9.43;6.40;;;;;;;15.61;100.00;101343.84;5018729;28;20222;-71
2022/10/31 10:58:29;;;;;;;11.30;7.17;;;;;;;15.66;100.00;101350.66;5025205;28;20246;-72
2022/10/31 11:00:56;;;;;;;10.47;6.87;;;;;;;15.73;100.00;101339.91;5018232;28;20215;-72
2022/10/31 11:03:23;;;;;;;12.33;6.90;;;;;;;15.79;100.00;101337.94;5022112;28;20635;-73
2022/10/31 11:05:51;;;;;;;10.70;6.57;;;;;;;15.84;100.00;101333.38;5015461;28;20238;-72
2022/10/31 11:08:25;;;;;;;10.37;6.60;;;;;;;15.96;100.00;101329.44;5020659;28;20691;-72
2022/10/31 11:11:02;;;;;;;12.33;6.70;;;;;;;16.05;100.00;101334.34;5006145;28;20245;-71
2022/10/31 11:13:29;;;;;;;8.97;6.03;;;;;;;16.08;100.00;101328.97;5015035;28;20501;-72
2022/10/31 11:16:02;;;;;;;10.97;6.97;;;;;;;16.13;100.00;101334.06;5014912;28;20714;-71
2022/10/31 11:18:33;;;;;;;9.63;6.73;;;;;;;16.18;100.00;101329.50;4998246;28;20219;-72
2022/10/31 11:21:04;;;;;;;12.43;7.20;;;;;;;16.21;100.00;101324.09;5023344;28;20200;-72
2022/10/31 11:23:31;;;;;;;10.53;6.27;;;;;;;16.21;100.00;101329.34;5017801;28;20585;-72
2022/10/31 11:26:02;;;;;;;13.03;6.83;;;;;;;16.22;100.00;101319.72;5022636;28;20211;-73
2022/10/31 11:28:30;;;;;;;9.17;6.50;;;;;;;16.27;100.00;101310.72;5019047;28;20199;-72
2022/10/31 11:30:59;;;;;;;14.00;7.03;;;;;;;16.32;100.00;101307.03;5022155;28;20196;-72
2022/10/31 11:33:31;;;;;;;14.00;6.50;;;;;;;16.35;100.00;101307.75;5009739;28;20197;-72
2022/10/31 11:35:58;;;;;;;11.37;6.57;;;;;;;16.39;100.00;101316.41;5014422;28;20211;-72
2022/10/31 11:38:30;;;;;;;13.20;6.50;;;;;;;16.42;100.00;101319.75;5013968;28;20203;-71
2022/10/31 11:41:02;;;;;;;11.17;6.60;;;;;;;16.47;100.00;101317.81;4990974;28;20681;-72
2022/10/31 11:43:30;;;;;;;16.43;7.50;;;;;;;16.51;100.00;101318.53;5022350;28;20220;-72
2022/10/31 11:45:57;;;;;;;16.30;6.67;;;;;;;16.53;100.00;101310.59;5007794;28;20220;-72